createdAt,value
2023-06-07T16:44:22.467Z,100070.40
2023-06-07T16:46:53.336Z,100072.60
2023-06-07T16:49:20.816Z,100075.00
2023-06-07T16:51:48.322Z,100073.00
2023-06-07T16:54:16.704Z,100072.00
2023-06-07T16:56:44.434Z,100075.20
2023-06-07T16:59:12.862Z,100075.80
2023-06-07T17:01:40.507Z,100079.20
2023-06-07T17:04:08.093Z,100080.20
2023-06-07T17:06:38.194Z,100075.60
2023-06-07T17:09:06.176Z,100074.80
2023-06-07T17:11:33.670Z,100066.20
2023-06-07T17:14:01.296Z,100065.80
2023-06-07T17:16:28.967Z,100057.00
2023-06-07T17:18:56.566Z,100057.40
2023-06-07T17:21:24.089Z,100053.40
2023-06-07T17:23:51.655Z,100052.60
2023-06-07T17:26:19.037Z,100049.00
2023-06-07T17:28:46.575Z,100049.40
2023-06-07T17:31:14.102Z,100047.00
2023-06-07T17:33:42.400Z,100048.60
2023-06-07T17:36:10.084Z,100049.00
2023-06-07T17:38:37.782Z,100046.60
2023-06-07T17:41:05.354Z,100053.00
2023-06-07T17:43:32.773Z,100050.00
2023-06-07T17:46:00.972Z,100052.60
2023-06-07T17:48:28.609Z,100054.20
2023-06-07T17:50:56.011Z,100059.20
2023-06-07T17:53:23.332Z,100063.80
2023-06-07T17:55:50.966Z,100064.60
2023-06-07T17:58:18.535Z,100066.00
2023-06-07T18:00:46.413Z,100066.20
2023-06-07T18:03:19.645Z,100062.00
2023-06-07T18:05:47.873Z,100062.00
2023-06-07T18:08:15.583Z,100059.80
2023-06-07T18:10:43.050Z,100060.60
2023-06-07T18:13:10.768Z,100060.40
2023-06-07T18:15:38.385Z,100061.00
2023-06-07T18:18:07.484Z,100064.60
2023-06-07T18:20:36.690Z,100074.20
2023-06-07T18:23:04.608Z,100090.60
2023-06-07T18:25:32.227Z,100095.00
2023-06-07T18:27:59.763Z,100100.00
2023-06-07T18:30:29.340Z,100097.80
2023-06-07T18:32:57.301Z,100105.80
2023-06-07T18:35:25.047Z,100111.80
2023-06-07T18:37:52.629Z,100118.80
2023-06-07T18:40:20.083Z,100131.00
2023-06-07T18:42:47.388Z,100126.80
2023-06-07T18:45:15.424Z,100126.20
2023-06-07T18:47:42.994Z,100113.00
2023-06-07T18:50:11.877Z,100100.00
2023-06-07T18:52:39.581Z,100109.20
2023-06-07T18:55:08.897Z,100113.20
2023-06-07T18:57:37.159Z,100115.40
2023-06-07T19:00:06.299Z,100116.40
2023-06-07T19:02:34.211Z,100121.60
2023-06-07T19:05:01.792Z,100124.80
2023-06-07T19:07:29.398Z,100132.20
2023-06-07T19:09:56.937Z,100135.20
2023-06-07T19:12:27.225Z,100136.80
2023-06-07T19:14:56.613Z,100136.40
2023-06-07T19:17:24.247Z,100140.60
2023-06-07T19:19:51.971Z,100142.00
2023-06-07T19:22:19.473Z,100152.20
2023-06-07T19:24:47.028Z,100154.40
2023-06-07T19:27:14.748Z,100153.00
2023-06-07T19:29:42.441Z,100150.20
2023-06-07T19:32:10.360Z,100152.00
2023-06-07T19:34:37.873Z,100152.20
2023-06-07T19:37:06.718Z,100151.60
2023-06-07T19:39:34.338Z,100154.20
2023-06-07T19:42:06.409Z,100154.20
2023-06-07T19:44:36.830Z,100155.40
2023-06-07T19:47:05.053Z,100148.80
2023-06-07T19:49:32.529Z,100152.00
2023-06-07T19:52:00.486Z,100151.80
2023-06-07T19:54:28.029Z,100152.60
2023-06-07T19:56:55.524Z,100155.40
2023-06-07T19:59:22.975Z,100156.40
2023-06-07T20:01:50.684Z,100156.60
2023-06-07T20:04:18.554Z,100159.00
2023-06-07T20:06:46.425Z,100152.80
2023-06-07T20:09:14.136Z,100153.20
2023-06-07T20:11:42.012Z,100148.20
2023-06-07T20:14:11.247Z,100147.60
2023-06-07T20:16:38.903Z,100145.60
2023-06-07T20:19:07.324Z,100148.20
2023-06-07T20:21:35.010Z,100152.60
2023-06-07T20:24:02.721Z,100148.00
2023-06-07T20:26:30.401Z,100146.40
2023-06-07T20:29:01.946Z,100145.40
2023-06-07T20:31:29.688Z,100146.80
2023-06-07T20:33:57.236Z,100153.00
2023-06-07T20:36:26.812Z,100150.20
2023-06-07T20:38:54.277Z,100145.80
2023-06-07T20:41:21.790Z,100150.00
2023-06-07T20:43:49.465Z,100149.00
2023-06-07T20:46:17.138Z,100146.60
2023-06-07T20:48:44.777Z,100143.00
2023-06-07T20:51:12.191Z,100146.40
2023-06-07T20:53:39.582Z,100144.40
2023-06-07T20:56:07.031Z,100148.00
2023-06-07T20:58:34.648Z,100147.80
2023-06-07T21:01:02.139Z,100147.00
2023-06-07T21:03:30.294Z,100144.60
2023-06-07T21:05:57.861Z,100143.80
2023-06-07T21:08:25.272Z,100146.20
2023-06-07T21:10:53.289Z,100149.20
2023-06-07T21:13:20.831Z,100151.80
2023-06-07T21:15:48.490Z,100153.60
2023-06-07T21:18:16.169Z,100152.80
2023-06-07T21:20:43.846Z,100149.80
2023-06-07T21:23:13.211Z,100151.00
2023-06-07T21:25:40.977Z,100148.40
2023-06-07T21:28:08.291Z,100147.40
2023-06-07T21:30:35.845Z,100147.60
2023-06-07T21:33:04.737Z,100151.40
2023-06-07T21:35:33.208Z,100145.80
2023-06-07T21:38:00.903Z,100142.40
2023-06-07T21:40:28.625Z,100142.20
2023-06-07T21:42:56.011Z,100144.20
2023-06-07T21:45:28.829Z,100145.40
2023-06-07T21:47:56.406Z,100150.40
2023-06-07T21:50:24.697Z,100149.40
2023-06-07T21:52:52.085Z,100148.60
2023-06-07T21:55:19.883Z,100148.60
2023-06-07T21:57:47.504Z,100153.00
